sensor_id;sensor_type;location;lat;lon;timestamp;temperature;humidity
1880;DHT22;49285;49.002;8.390;2023-06-26T00:00:24;26.30;59.30
1880;DHT22;49285;49.002;8.390;2023-06-26T00:02:50;26.40;59.30
1880;DHT22;49285;49.002;8.390;2023-06-26T00:05:15;26.40;59.20
1880;DHT22;49285;49.002;8.390;2023-06-26T00:07:41;26.30;59.40
1880;DHT22;49285;49.002;8.390;2023-06-26T00:10:07;26.30;59.40
1880;DHT22;49285;49.002;8.390;2023-06-26T00:12:32;26.30;59.40
1880;DHT22;49285;49.002;8.390;2023-06-26T00:14:58;26.20;59.60
1880;DHT22;49285;49.002;8.390;2023-06-26T00:17:24;26.10;59.80
1880;DHT22;49285;49.002;8.390;2023-06-26T00:19:50;26.10;60.20
1880;DHT22;49285;49.002;8.390;2023-06-26T00:22:15;26.00;60.60
1880;DHT22;49285;49.002;8.390;2023-06-26T00:24:41;25.90;60.60
1880;DHT22;49285;49.002;8.390;2023-06-26T00:27:07;25.90;60.90
1880;DHT22;49285;49.002;8.390;2023-06-26T00:29:32;25.90;61.00
1880;DHT22;49285;49.002;8.390;2023-06-26T00:31:58;25.90;61.20
1880;DHT22;49285;49.002;8.390;2023-06-26T00:34:23;25.70;61.60
1880;DHT22;49285;49.002;8.390;2023-06-26T00:36:49;25.60;62.20
1880;DHT22;49285;49.002;8.390;2023-06-26T00:39:15;25.60;62.40
1880;DHT22;49285;49.002;8.390;2023-06-26T00:41:40;25.60;62.30
1880;DHT22;49285;49.002;8.390;2023-06-26T00:44:06;25.60;62.50
1880;DHT22;49285;49.002;8.390;2023-06-26T00:46:33;25.60;62.20
1880;DHT22;49285;49.002;8.390;2023-06-26T00:49:00;25.40;62.70
1880;DHT22;49285;49.002;8.390;2023-06-26T00:51:28;25.30;63.10
1880;DHT22;49285;49.002;8.390;2023-06-26T00:53:54;25.20;63.60
1880;DHT22;49285;49.002;8.390;2023-06-26T00:56:20;25.00;64.10
1880;DHT22;49285;49.002;8.390;2023-06-26T00:58:46;24.90;64.40
1880;DHT22;49285;49.002;8.390;2023-06-26T01:01:12;24.70;65.00
1880;DHT22;49285;49.002;8.390;2023-06-26T01:03:46;24.80;65.10
1880;DHT22;49285;49.002;8.390;2023-06-26T01:06:17;24.80;64.90
1880;DHT22;49285;49.002;8.390;2023-06-26T01:08:44;24.80;64.90
1880;DHT22;49285;49.002;8.390;2023-06-26T01:11:10;24.70;65.00
1880;DHT22;49285;49.002;8.390;2023-06-26T01:13:37;24.70;65.00
1880;DHT22;49285;49.002;8.390;2023-06-26T01:16:04;24.60;65.10
1880;DHT22;49285;49.002;8.390;2023-06-26T01:18:31;24.50;65.50
1880;DHT22;49285;49.002;8.390;2023-06-26T01:20:58;24.50;65.70
1880;DHT22;49285;49.002;8.390;2023-06-26T01:23:48;24.50;66.00
1880;DHT22;49285;49.002;8.390;2023-06-26T01:26:20;24.50;65.80
1880;DHT22;49285;49.002;8.390;2023-06-26T01:28:47;24.50;65.70
1880;DHT22;49285;49.002;8.390;2023-06-26T01:31:13;24.40;65.30
1880;DHT22;49285;49.002;8.390;2023-06-26T01:33:41;24.30;65.50
1880;DHT22;49285;49.002;8.390;2023-06-26T01:36:07;24.40;65.50
1880;DHT22;49285;49.002;8.390;2023-06-26T01:38:32;24.40;65.10
1880;DHT22;49285;49.002;8.390;2023-06-26T01:40:59;24.40;65.30
1880;DHT22;49285;49.002;8.390;2023-06-26T01:46:04;24.30;65.40
1880;DHT22;49285;49.002;8.390;2023-06-26T01:48:38;24.10;64.80
1880;DHT22;49285;49.002;8.390;2023-06-26T01:51:06;24.00;65.20
1880;DHT22;49285;49.002;8.390;2023-06-26T01:53:41;24.00;65.30
1880;DHT22;49285;49.002;8.390;2023-06-26T01:56:13;24.00;65.80
1880;DHT22;49285;49.002;8.390;2023-06-26T01:58:43;24.00;65.80
1880;DHT22;49285;49.002;8.390;2023-06-26T02:01:10;24.00;66.30
1880;DHT22;49285;49.002;8.390;2023-06-26T02:03:36;24.00;66.20
1880;DHT22;49285;49.002;8.390;2023-06-26T02:06:02;24.10;67.00
1880;DHT22;49285;49.002;8.390;2023-06-26T02:08:27;24.10;65.90
1880;DHT22;49285;49.002;8.390;2023-06-26T02:10:53;24.20;66.00
1880;DHT22;49285;49.002;8.390;2023-06-26T02:13:18;24.20;66.20
1880;DHT22;49285;49.002;8.390;2023-06-26T02:15:44;24.20;66.20
1880;DHT22;49285;49.002;8.390;2023-06-26T02:18:10;24.00;66.50
1880;DHT22;49285;49.002;8.390;2023-06-26T02:20:35;23.90;66.60
1880;DHT22;49285;49.002;8.390;2023-06-26T02:23:01;23.90;66.80
1880;DHT22;49285;49.002;8.390;2023-06-26T02:25:26;23.90;66.80
1880;DHT22;49285;49.002;8.390;2023-06-26T02:27:52;24.00;66.80
1880;DHT22;49285;49.002;8.390;2023-06-26T02:30:17;24.00;66.80
1880;DHT22;49285;49.002;8.390;2023-06-26T02:32:43;24.00;66.80
1880;DHT22;49285;49.002;8.390;2023-06-26T02:35:09;24.00;66.80
1880;DHT22;49285;49.002;8.390;2023-06-26T02:37:34;24.00;66.90
1880;DHT22;49285;49.002;8.390;2023-06-26T02:40:00;23.90;66.60
1880;DHT22;49285;49.002;8.390;2023-06-26T02:42:25;23.90;66.60
1880;DHT22;49285;49.002;8.390;2023-06-26T02:44:51;23.90;66.70
1880;DHT22;49285;49.002;8.390;2023-06-26T02:47:17;23.80;66.90
1880;DHT22;49285;49.002;8.390;2023-06-26T02:49:42;23.80;67.20
1880;DHT22;49285;49.002;8.390;2023-06-26T02:52:08;23.70;67.00
1880;DHT22;49285;49.002;8.390;2023-06-26T02:54:33;23.70;67.00
1880;DHT22;49285;49.002;8.390;2023-06-26T02:56:59;23.60;67.30
1880;DHT22;49285;49.002;8.390;2023-06-26T02:59:25;23.60;67.70
1880;DHT22;49285;49.002;8.390;2023-06-26T03:01:51;23.50;68.30
1880;DHT22;49285;49.002;8.390;2023-06-26T03:04:17;23.50;68.80
1880;DHT22;49285;49.002;8.390;2023-06-26T03:06:43;23.50;68.40
1880;DHT22;49285;49.002;8.390;2023-06-26T03:09:09;23.50;68.50
1880;DHT22;49285;49.002;8.390;2023-06-26T03:11:34;23.50;68.40
1880;DHT22;49285;49.002;8.390;2023-06-26T03:14:00;23.40;68.50
1880;DHT22;49285;49.002;8.390;2023-06-26T03:16:25;23.20;68.90
1880;DHT22;49285;49.002;8.390;2023-06-26T03:18:51;23.30;69.10
1880;DHT22;49285;49.002;8.390;2023-06-26T03:21:17;23.20;69.20
1880;DHT22;49285;49.002;8.390;2023-06-26T03:23:42;23.10;70.00
1880;DHT22;49285;49.002;8.390;2023-06-26T03:26:08;23.10;70.00
1880;DHT22;49285;49.002;8.390;2023-06-26T03:28:33;23.10;70.30
1880;DHT22;49285;49.002;8.390;2023-06-26T03:30:59;23.10;70.80
1880;DHT22;49285;49.002;8.390;2023-06-26T03:33:25;23.10;70.90
1880;DHT22;49285;49.002;8.390;2023-06-26T03:35:50;23.10;71.00
1880;DHT22;49285;49.002;8.390;2023-06-26T03:38:16;23.00;71.30
1880;DHT22;49285;49.002;8.390;2023-06-26T03:40:41;22.90;72.10
1880;DHT22;49285;49.002;8.390;2023-06-26T03:43:07;22.90;72.20
1880;DHT22;49285;49.002;8.390;2023-06-26T03:45:35;23.00;71.60
1880;DHT22;49285;49.002;8.390;2023-06-26T03:48:06;23.00;71.70
1880;DHT22;49285;49.002;8.390;2023-06-26T03:50:35;22.90;71.50
1880;DHT22;49285;49.002;8.390;2023-06-26T03:53:00;23.00;71.90
1880;DHT22;49285;49.002;8.390;2023-06-26T03:55:26;23.00;71.80
1880;DHT22;49285;49.002;8.390;2023-06-26T03:57:51;23.00;71.50
1880;DHT22;49285;49.002;8.390;2023-06-26T04:00:17;23.10;71.60
1880;DHT22;49285;49.002;8.390;2023-06-26T04:02:43;23.00;72.10
1880;DHT22;49285;49.002;8.390;2023-06-26T04:05:08;22.90;72.40
1880;DHT22;49285;49.002;8.390;2023-06-26T04:07:34;22.80;72.90
1880;DHT22;49285;49.002;8.390;2023-06-26T04:10:01;22.80;72.90
1880;DHT22;49285;49.002;8.390;2023-06-26T04:12:27;22.90;72.70
1880;DHT22;49285;49.002;8.390;2023-06-26T04:14:52;22.90;72.40
1880;DHT22;49285;49.002;8.390;2023-06-26T04:17:18;22.70;73.70
1880;DHT22;49285;49.002;8.390;2023-06-26T04:19:44;22.60;73.70
1880;DHT22;49285;49.002;8.390;2023-06-26T04:22:09;22.60;74.10
1880;DHT22;49285;49.002;8.390;2023-06-26T04:24:35;22.60;74.00
1880;DHT22;49285;49.002;8.390;2023-06-26T04:27:00;22.60;74.30
1880;DHT22;49285;49.002;8.390;2023-06-26T04:29:26;22.70;74.50
1880;DHT22;49285;49.002;8.390;2023-06-26T04:31:52;22.70;75.50
1880;DHT22;49285;49.002;8.390;2023-06-26T04:34:26;22.70;74.50
1880;DHT22;49285;49.002;8.390;2023-06-26T04:36:52;22.70;73.90
1880;DHT22;49285;49.002;8.390;2023-06-26T04:39:17;22.80;73.50
1880;DHT22;49285;49.002;8.390;2023-06-26T04:41:44;22.90;73.60
1880;DHT22;49285;49.002;8.390;2023-06-26T04:44:10;22.80;73.00
1880;DHT22;49285;49.002;8.390;2023-06-26T04:46:37;22.80;73.00
1880;DHT22;49285;49.002;8.390;2023-06-26T04:49:09;22.80;73.20
1880;DHT22;49285;49.002;8.390;2023-06-26T04:51:34;22.70;73.90
1880;DHT22;49285;49.002;8.390;2023-06-26T04:54:06;22.60;74.70
1880;DHT22;49285;49.002;8.390;2023-06-26T04:56:32;22.70;75.20
1880;DHT22;49285;49.002;8.390;2023-06-26T04:58:57;22.80;75.20
1880;DHT22;49285;49.002;8.390;2023-06-26T05:01:23;22.80;75.70
1880;DHT22;49285;49.002;8.390;2023-06-26T05:03:48;22.80;76.00
1880;DHT22;49285;49.002;8.390;2023-06-26T05:06:14;22.80;76.20
1880;DHT22;49285;49.002;8.390;2023-06-26T05:08:40;22.80;76.30
1880;DHT22;49285;49.002;8.390;2023-06-26T05:11:06;22.80;77.00
1880;DHT22;49285;49.002;8.390;2023-06-26T05:13:31;22.90;77.20
1880;DHT22;49285;49.002;8.390;2023-06-26T05:15:57;22.90;77.80
1880;DHT22;49285;49.002;8.390;2023-06-26T05:18:23;23.00;78.40
1880;DHT22;49285;49.002;8.390;2023-06-26T05:20:48;23.00;79.20
1880;DHT22;49285;49.002;8.390;2023-06-26T05:23:16;23.00;79.30
1880;DHT22;49285;49.002;8.390;2023-06-26T05:25:41;23.00;79.80
1880;DHT22;49285;49.002;8.390;2023-06-26T05:28:08;23.10;80.30
1880;DHT22;49285;49.002;8.390;2023-06-26T05:30:36;23.20;80.50
1880;DHT22;49285;49.002;8.390;2023-06-26T05:33:02;23.20;81.10
1880;DHT22;49285;49.002;8.390;2023-06-26T05:35:29;23.30;81.20
1880;DHT22;49285;49.002;8.390;2023-06-26T05:37:57;23.40;81.40
1880;DHT22;49285;49.002;8.390;2023-06-26T05:40:23;23.50;81.70
1880;DHT22;49285;49.002;8.390;2023-06-26T05:42:49;23.50;82.00
1880;DHT22;49285;49.002;8.390;2023-06-26T05:45:15;23.40;82.20
1880;DHT22;49285;49.002;8.390;2023-06-26T05:47:41;23.40;82.10
1880;DHT22;49285;49.002;8.390;2023-06-26T05:50:08;23.40;82.50
1880;DHT22;49285;49.002;8.390;2023-06-26T05:52:35;23.40;82.50
1880;DHT22;49285;49.002;8.390;2023-06-26T05:55:01;23.40;83.00
1880;DHT22;49285;49.002;8.390;2023-06-26T05:57:29;23.50;83.40
1880;DHT22;49285;49.002;8.390;2023-06-26T05:59:55;23.40;83.70
1880;DHT22;49285;49.002;8.390;2023-06-26T06:02:21;23.50;83.90
1880;DHT22;49285;49.002;8.390;2023-06-26T06:04:47;23.50;84.90
1880;DHT22;49285;49.002;8.390;2023-06-26T06:07:12;23.40;84.40
1880;DHT22;49285;49.002;8.390;2023-06-26T06:09:38;23.50;84.00
1880;DHT22;49285;49.002;8.390;2023-06-26T06:12:08;23.60;83.80
1880;DHT22;49285;49.002;8.390;2023-06-26T06:14:34;23.70;84.10
1880;DHT22;49285;49.002;8.390;2023-06-26T06:17:00;23.80;83.30
1880;DHT22;49285;49.002;8.390;2023-06-26T06:19:26;23.80;83.40
1880;DHT22;49285;49.002;8.390;2023-06-26T06:21:51;23.90;83.10
1880;DHT22;49285;49.002;8.390;2023-06-26T06:24:17;23.90;83.10
1880;DHT22;49285;49.002;8.390;2023-06-26T06:26:43;24.00;83.30
1880;DHT22;49285;49.002;8.390;2023-06-26T06:29:09;24.10;83.30
1880;DHT22;49285;49.002;8.390;2023-06-26T06:31:34;24.10;83.40
1880;DHT22;49285;49.002;8.390;2023-06-26T06:34:00;24.20;83.50
1880;DHT22;49285;49.002;8.390;2023-06-26T06:36:26;24.30;83.40
1880;DHT22;49285;49.002;8.390;2023-06-26T06:38:51;24.30;83.10
1880;DHT22;49285;49.002;8.390;2023-06-26T06:41:17;24.30;82.90
1880;DHT22;49285;49.002;8.390;2023-06-26T06:43:42;24.50;83.10
1880;DHT22;49285;49.002;8.390;2023-06-26T06:46:08;24.60;82.30
1880;DHT22;49285;49.002;8.390;2023-06-26T06:48:34;24.70;82.50
1880;DHT22;49285;49.002;8.390;2023-06-26T06:51:00;24.90;82.10
1880;DHT22;49285;49.002;8.390;2023-06-26T06:53:25;25.00;81.60
1880;DHT22;49285;49.002;8.390;2023-06-26T06:55:51;25.00;82.80
1880;DHT22;49285;49.002;8.390;2023-06-26T06:58:17;25.10;82.00
1880;DHT22;49285;49.002;8.390;2023-06-26T07:00:44;25.20;81.70
1880;DHT22;49285;49.002;8.390;2023-06-26T07:03:10;25.30;81.40
1880;DHT22;49285;49.002;8.390;2023-06-26T07:05:36;25.30;80.80
1880;DHT22;49285;49.002;8.390;2023-06-26T07:08:02;25.40;80.30
1880;DHT22;49285;49.002;8.390;2023-06-26T07:10:28;25.50;80.20
1880;DHT22;49285;49.002;8.390;2023-06-26T07:12:54;25.50;79.80
1880;DHT22;49285;49.002;8.390;2023-06-26T07:15:19;25.60;79.40
1880;DHT22;49285;49.002;8.390;2023-06-26T07:17:45;25.70;78.50
1880;DHT22;49285;49.002;8.390;2023-06-26T07:20:11;25.80;78.00
1880;DHT22;49285;49.002;8.390;2023-06-26T07:22:40;25.80;76.50
1880;DHT22;49285;49.002;8.390;2023-06-26T07:25:06;25.90;75.90
1880;DHT22;49285;49.002;8.390;2023-06-26T07:27:37;26.00;75.20
1880;DHT22;49285;49.002;8.390;2023-06-26T07:30:04;26.00;75.00
1880;DHT22;49285;49.002;8.390;2023-06-26T07:32:29;26.10;74.70
1880;DHT22;49285;49.002;8.390;2023-06-26T07:34:55;26.20;74.10
1880;DHT22;49285;49.002;8.390;2023-06-26T07:37:21;26.20;73.80
1880;DHT22;49285;49.002;8.390;2023-06-26T07:39:48;26.30;73.20
1880;DHT22;49285;49.002;8.390;2023-06-26T07:42:14;26.30;72.50
1880;DHT22;49285;49.002;8.390;2023-06-26T07:44:41;26.40;73.20
1880;DHT22;49285;49.002;8.390;2023-06-26T07:47:06;26.50;72.40
1880;DHT22;49285;49.002;8.390;2023-06-26T07:49:32;26.50;72.20
1880;DHT22;49285;49.002;8.390;2023-06-26T07:51:58;26.60;71.60
1880;DHT22;49285;49.002;8.390;2023-06-26T07:54:23;26.60;71.50
1880;DHT22;49285;49.002;8.390;2023-06-26T07:57:00;26.70;71.00
1880;DHT22;49285;49.002;8.390;2023-06-26T07:59:27;26.70;71.60
1880;DHT22;49285;49.002;8.390;2023-06-26T08:01:54;26.80;72.00
1880;DHT22;49285;49.002;8.390;2023-06-26T08:04:24;26.80;71.70
1880;DHT22;49285;49.002;8.390;2023-06-26T08:06:53;26.90;72.20
1880;DHT22;49285;49.002;8.390;2023-06-26T08:09:20;26.90;72.80
1880;DHT22;49285;49.002;8.390;2023-06-26T08:11:46;27.00;73.90
1880;DHT22;49285;49.002;8.390;2023-06-26T08:14:12;27.10;73.00
1880;DHT22;49285;49.002;8.390;2023-06-26T08:16:38;27.10;73.20
1880;DHT22;49285;49.002;8.390;2023-06-26T08:19:04;27.10;73.80
1880;DHT22;49285;49.002;8.390;2023-06-26T08:21:30;27.20;73.70
1880;DHT22;49285;49.002;8.390;2023-06-26T08:23:55;27.20;74.00
1880;DHT22;49285;49.002;8.390;2023-06-26T08:26:21;27.10;74.60
1880;DHT22;49285;49.002;8.390;2023-06-26T08:28:46;27.20;75.00
1880;DHT22;49285;49.002;8.390;2023-06-26T08:31:12;27.30;75.00
1880;DHT22;49285;49.002;8.390;2023-06-26T08:33:38;27.20;74.30
1880;DHT22;49285;49.002;8.390;2023-06-26T08:36:03;27.20;74.30
1880;DHT22;49285;49.002;8.390;2023-06-26T08:38:29;27.10;74.30
1880;DHT22;49285;49.002;8.390;2023-06-26T08:40:54;27.20;74.70
1880;DHT22;49285;49.002;8.390;2023-06-26T08:43:20;27.10;74.60
1880;DHT22;49285;49.002;8.390;2023-06-26T08:45:47;27.20;75.00
1880;DHT22;49285;49.002;8.390;2023-06-26T08:48:17;27.20;75.10
1880;DHT22;49285;49.002;8.390;2023-06-26T08:50:43;27.30;75.50
1880;DHT22;49285;49.002;8.390;2023-06-26T08:56:24;27.20;75.50
1880;DHT22;49285;49.002;8.390;2023-06-26T08:58:52;27.20;76.20
1880;DHT22;49285;49.002;8.390;2023-06-26T09:01:18;27.30;76.80
1880;DHT22;49285;49.002;8.390;2023-06-26T09:03:44;27.30;76.80
1880;DHT22;49285;49.002;8.390;2023-06-26T09:06:10;27.40;76.00
1880;DHT22;49285;49.002;8.390;2023-06-26T09:08:36;27.50;76.10
1880;DHT22;49285;49.002;8.390;2023-06-26T09:11:01;27.50;75.50
1880;DHT22;49285;49.002;8.390;2023-06-26T09:13:30;27.50;75.10
1880;DHT22;49285;49.002;8.390;2023-06-26T09:15:56;27.60;75.30
1880;DHT22;49285;49.002;8.390;2023-06-26T09:18:22;27.70;75.00
1880;DHT22;49285;49.002;8.390;2023-06-26T09:20:48;27.60;75.20
1880;DHT22;49285;49.002;8.390;2023-06-26T09:23:14;27.70;75.70
1880;DHT22;49285;49.002;8.390;2023-06-26T09:25:40;27.70;75.60
1880;DHT22;49285;49.002;8.390;2023-06-26T09:28:06;27.70;76.00
1880;DHT22;49285;49.002;8.390;2023-06-26T09:30:33;27.70;76.30
1880;DHT22;49285;49.002;8.390;2023-06-26T09:33:19;27.80;76.20
1880;DHT22;49285;49.002;8.390;2023-06-26T09:35:46;27.70;76.30
1880;DHT22;49285;49.002;8.390;2023-06-26T09:38:13;27.70;76.20
1880;DHT22;49285;49.002;8.390;2023-06-26T09:40:39;27.70;76.80
1880;DHT22;49285;49.002;8.390;2023-06-26T09:43:05;27.80;76.80
1880;DHT22;49285;49.002;8.390;2023-06-26T09:45:35;27.70;77.10
1880;DHT22;49285;49.002;8.390;2023-06-26T09:48:04;27.70;77.60
1880;DHT22;49285;49.002;8.390;2023-06-26T09:50:32;27.70;78.10
1880;DHT22;49285;49.002;8.390;2023-06-26T09:53:08;27.70;78.30
1880;DHT22;49285;49.002;8.390;2023-06-26T09:55:39;27.60;78.00
1880;DHT22;49285;49.002;8.390;2023-06-26T09:58:10;27.60;79.00
1880;DHT22;49285;49.002;8.390;2023-06-26T10:00:43;27.70;79.40
1880;DHT22;49285;49.002;8.390;2023-06-26T10:03:09;27.80;79.20
1880;DHT22;49285;49.002;8.390;2023-06-26T10:05:35;27.80;78.90
1880;DHT22;49285;49.002;8.390;2023-06-26T10:08:01;27.90;78.60
1880;DHT22;49285;49.002;8.390;2023-06-26T10:10:27;27.90;78.60
1880;DHT22;49285;49.002;8.390;2023-06-26T10:13:04;28.00;78.70
1880;DHT22;49285;49.002;8.390;2023-06-26T10:15:31;28.00;79.00
1880;DHT22;49285;49.002;8.390;2023-06-26T10:17:57;28.10;79.40
1880;DHT22;49285;49.002;8.390;2023-06-26T10:20:24;28.20;78.70
1880;DHT22;49285;49.002;8.390;2023-06-26T10:22:50;28.20;78.70
1880;DHT22;49285;49.002;8.390;2023-06-26T10:25:19;28.30;78.80
1880;DHT22;49285;49.002;8.390;2023-06-26T10:27:48;28.30;78.50
1880;DHT22;49285;49.002;8.390;2023-06-26T10:30:17;28.30;78.10
1880;DHT22;49285;49.002;8.390;2023-06-26T10:32:45;28.30;77.90
1880;DHT22;49285;49.002;8.390;2023-06-26T10:35:11;28.40;78.20
1880;DHT22;49285;49.002;8.390;2023-06-26T10:37:48;28.40;76.90
1880;DHT22;49285;49.002;8.390;2023-06-26T10:40:20;28.50;77.20
1880;DHT22;49285;49.002;8.390;2023-06-26T10:42:49;28.60;76.80
1880;DHT22;49285;49.002;8.390;2023-06-26T10:45:20;28.80;76.50
1880;DHT22;49285;49.002;8.390;2023-06-26T10:47:47;28.90;75.90
1880;DHT22;49285;49.002;8.390;2023-06-26T10:50:23;29.00;75.40
1880;DHT22;49285;49.002;8.390;2023-06-26T10:53:11;28.90;74.70
1880;DHT22;49285;49.002;8.390;2023-06-26T10:55:41;28.80;74.70
1880;DHT22;49285;49.002;8.390;2023-06-26T11:03:38;29.10;73.90
1880;DHT22;49285;49.002;8.390;2023-06-26T11:06:12;29.20;73.50
1880;DHT22;49285;49.002;8.390;2023-06-26T11:08:52;29.20;72.80
1880;DHT22;49285;49.002;8.390;2023-06-26T11:11:22;29.30;73.00
1880;DHT22;49285;49.002;8.390;2023-06-26T11:14:08;29.20;72.60
1880;DHT22;49285;49.002;8.390;2023-06-26T11:16:34;29.20;72.30
1880;DHT22;49285;49.002;8.390;2023-06-26T11:19:00;29.10;72.60
1880;DHT22;49285;49.002;8.390;2023-06-26T11:21:26;29.20;72.70
1880;DHT22;49285;49.002;8.390;2023-06-26T11:23:53;29.30;73.10
1880;DHT22;49285;49.002;8.390;2023-06-26T11:26:23;29.50;71.80
1880;DHT22;49285;49.002;8.390;2023-06-26T11:28:53;29.60;70.20
1880;DHT22;49285;49.002;8.390;2023-06-26T11:31:32;29.60;69.00
1880;DHT22;49285;49.002;8.390;2023-06-26T11:34:05;29.70;68.40
1880;DHT22;49285;49.002;8.390;2023-06-26T11:36:31;29.80;67.70
1880;DHT22;49285;49.002;8.390;2023-06-26T11:39:01;29.70;66.30
1880;DHT22;49285;49.002;8.390;2023-06-26T11:41:30;29.90;66.20
1880;DHT22;49285;49.002;8.390;2023-06-26T11:44:00;29.90;65.40
1880;DHT22;49285;49.002;8.390;2023-06-26T11:46:25;29.90;65.70
1880;DHT22;49285;49.002;8.390;2023-06-26T11:48:52;29.90;65.00
1880;DHT22;49285;49.002;8.390;2023-06-26T11:51:17;29.90;65.00
1880;DHT22;49285;49.002;8.390;2023-06-26T11:53:44;29.80;65.10
1880;DHT22;49285;49.002;8.390;2023-06-26T11:56:15;30.00;64.60
1880;DHT22;49285;49.002;8.390;2023-06-26T12:01:27;30.00;62.40
1880;DHT22;49285;49.002;8.390;2023-06-26T12:03:59;30.00;61.80
1880;DHT22;49285;49.002;8.390;2023-06-26T12:06:25;30.20;60.90
1880;DHT22;49285;49.002;8.390;2023-06-26T12:08:51;30.70;59.60
1880;DHT22;49285;49.002;8.390;2023-06-26T12:11:17;31.10;58.30
1880;DHT22;49285;49.002;8.390;2023-06-26T12:13:45;32.10;57.30
1880;DHT22;49285;49.002;8.390;2023-06-26T12:16:12;32.00;56.30
1880;DHT22;49285;49.002;8.390;2023-06-26T12:18:39;32.70;55.20
1880;DHT22;49285;49.002;8.390;2023-06-26T12:21:05;32.60;54.20
1880;DHT22;49285;49.002;8.390;2023-06-26T12:23:39;32.60;53.60
1880;DHT22;49285;49.002;8.390;2023-06-26T12:26:21;32.70;53.60
1880;DHT22;49285;49.002;8.390;2023-06-26T12:28:47;32.50;53.60
1880;DHT22;49285;49.002;8.390;2023-06-26T12:31:17;32.80;53.40
1880;DHT22;49285;49.002;8.390;2023-06-26T12:33:45;32.40;52.60
1880;DHT22;49285;49.002;8.390;2023-06-26T12:36:14;32.00;52.60
1880;DHT22;49285;49.002;8.390;2023-06-26T12:38:45;31.80;53.20
1880;DHT22;49285;49.002;8.390;2023-06-26T12:41:14;32.00;53.10
1880;DHT22;49285;49.002;8.390;2023-06-26T12:43:43;32.10;53.10
1880;DHT22;49285;49.002;8.390;2023-06-26T12:46:09;31.90;52.70
1880;DHT22;49285;49.002;8.390;2023-06-26T12:51:11;31.80;52.70
1880;DHT22;49285;49.002;8.390;2023-06-26T12:53:37;31.70;53.60
1880;DHT22;49285;49.002;8.390;2023-06-26T12:56:05;31.80;52.90
1880;DHT22;49285;49.002;8.390;2023-06-26T12:58:31;31.90;53.00
1880;DHT22;49285;49.002;8.390;2023-06-26T13:00:57;31.80;53.00
1880;DHT22;49285;49.002;8.390;2023-06-26T13:03:23;31.60;52.70
1880;DHT22;49285;49.002;8.390;2023-06-26T13:05:48;31.90;52.60
1880;DHT22;49285;49.002;8.390;2023-06-26T13:08:14;31.80;52.20
1880;DHT22;49285;49.002;8.390;2023-06-26T13:10:42;31.60;52.20
1880;DHT22;49285;49.002;8.390;2023-06-26T13:13:09;31.50;52.70
1880;DHT22;49285;49.002;8.390;2023-06-26T13:15:35;31.40;52.90
1880;DHT22;49285;49.002;8.390;2023-06-26T13:18:01;31.30;53.00
1880;DHT22;49285;49.002;8.390;2023-06-26T13:20:26;31.40;52.80
1880;DHT22;49285;49.002;8.390;2023-06-26T13:22:53;31.40;52.70
1880;DHT22;49285;49.002;8.390;2023-06-26T13:25:19;31.30;52.40
1880;DHT22;49285;49.002;8.390;2023-06-26T13:27:45;31.40;52.70
1880;DHT22;49285;49.002;8.390;2023-06-26T13:30:11;31.30;52.70
1880;DHT22;49285;49.002;8.390;2023-06-26T13:32:37;31.30;52.70
1880;DHT22;49285;49.002;8.390;2023-06-26T13:35:02;31.30;52.50
1880;DHT22;49285;49.002;8.390;2023-06-26T13:37:29;31.60;52.50
1880;DHT22;49285;49.002;8.390;2023-06-26T13:39:54;31.60;51.80
1880;DHT22;49285;49.002;8.390;2023-06-26T13:42:20;31.50;51.80
1880;DHT22;49285;49.002;8.390;2023-06-26T13:44:46;31.50;52.00
1880;DHT22;49285;49.002;8.390;2023-06-26T13:47:13;31.50;52.00
1880;DHT22;49285;49.002;8.390;2023-06-26T13:49:40;31.50;52.00
1880;DHT22;49285;49.002;8.390;2023-06-26T13:52:06;31.50;51.90
1880;DHT22;49285;49.002;8.390;2023-06-26T13:54:35;31.60;51.60
1880;DHT22;49285;49.002;8.390;2023-06-26T13:57:01;31.60;51.80
1880;DHT22;49285;49.002;8.390;2023-06-26T13:59:28;31.60;52.20
1880;DHT22;49285;49.002;8.390;2023-06-26T14:01:53;31.60;52.80
1880;DHT22;49285;49.002;8.390;2023-06-26T14:04:19;31.60;52.00
1880;DHT22;49285;49.002;8.390;2023-06-26T14:06:44;31.80;52.40
1880;DHT22;49285;49.002;8.390;2023-06-26T14:09:11;31.90;52.10
1880;DHT22;49285;49.002;8.390;2023-06-26T14:11:36;31.80;51.90
1880;DHT22;49285;49.002;8.390;2023-06-26T14:14:02;32.00;51.60
1880;DHT22;49285;49.002;8.390;2023-06-26T14:16:28;32.10;51.50
1880;DHT22;49285;49.002;8.390;2023-06-26T14:18:54;32.20;51.40
1880;DHT22;49285;49.002;8.390;2023-06-26T14:21:20;31.70;51.20
1880;DHT22;49285;49.002;8.390;2023-06-26T14:23:46;31.70;51.10
1880;DHT22;49285;49.002;8.390;2023-06-26T14:26:11;32.00;51.10
1880;DHT22;49285;49.002;8.390;2023-06-26T14:28:38;32.00;50.80
1880;DHT22;49285;49.002;8.390;2023-06-26T14:31:04;31.90;50.40
1880;DHT22;49285;49.002;8.390;2023-06-26T14:33:29;32.00;50.60
1880;DHT22;49285;49.002;8.390;2023-06-26T14:35:55;32.20;49.70
1880;DHT22;49285;49.002;8.390;2023-06-26T14:38:20;32.00;49.50
1880;DHT22;49285;49.002;8.390;2023-06-26T14:40:46;31.60;49.40
1880;DHT22;49285;49.002;8.390;2023-06-26T14:43:12;31.50;49.70
1880;DHT22;49285;49.002;8.390;2023-06-26T14:45:37;31.10;49.60
1880;DHT22;49285;49.002;8.390;2023-06-26T14:48:03;31.10;49.80
1880;DHT22;49285;49.002;8.390;2023-06-26T14:50:28;31.40;50.10
1880;DHT22;49285;49.002;8.390;2023-06-26T14:52:54;31.60;50.00
1880;DHT22;49285;49.002;8.390;2023-06-26T14:55:20;31.80;48.50
1880;DHT22;49285;49.002;8.390;2023-06-26T14:57:45;32.10;48.40
1880;DHT22;49285;49.002;8.390;2023-06-26T15:00:11;32.50;46.60
1880;DHT22;49285;49.002;8.390;2023-06-26T15:02:37;32.40;44.80
1880;DHT22;49285;49.002;8.390;2023-06-26T15:05:03;32.60;44.90
1880;DHT22;49285;49.002;8.390;2023-06-26T15:07:29;32.50;42.80
1880;DHT22;49285;49.002;8.390;2023-06-26T15:09:54;32.30;42.30
1880;DHT22;49285;49.002;8.390;2023-06-26T15:12:20;32.00;42.60
1880;DHT22;49285;49.002;8.390;2023-06-26T15:14:46;31.60;42.90
1880;DHT22;49285;49.002;8.390;2023-06-26T15:17:11;31.20;43.00
1880;DHT22;49285;49.002;8.390;2023-06-26T15:19:37;31.30;42.50
1880;DHT22;49285;49.002;8.390;2023-06-26T15:22:03;31.30;42.30
1880;DHT22;49285;49.002;8.390;2023-06-26T15:24:29;31.50;42.20
1880;DHT22;49285;49.002;8.390;2023-06-26T15:26:55;31.40;38.80
1880;DHT22;49285;49.002;8.390;2023-06-26T15:29:20;31.80;37.30
1880;DHT22;49285;49.002;8.390;2023-06-26T15:31:46;32.00;36.90
1880;DHT22;49285;49.002;8.390;2023-06-26T15:34:12;31.90;36.80
1880;DHT22;49285;49.002;8.390;2023-06-26T15:36:38;31.90;36.60
1880;DHT22;49285;49.002;8.390;2023-06-26T15:39:04;32.00;36.50
1880;DHT22;49285;49.002;8.390;2023-06-26T15:41:30;32.20;36.90
1880;DHT22;49285;49.002;8.390;2023-06-26T15:43:55;32.50;36.50
1880;DHT22;49285;49.002;8.390;2023-06-26T15:46:21;32.50;36.30
1880;DHT22;49285;49.002;8.390;2023-06-26T15:48:46;33.00;36.00
1880;DHT22;49285;49.002;8.390;2023-06-26T15:51:13;33.80;35.90
1880;DHT22;49285;49.002;8.390;2023-06-26T15:53:40;33.30;34.40
1880;DHT22;49285;49.002;8.390;2023-06-26T15:56:09;32.70;35.10
1880;DHT22;49285;49.002;8.390;2023-06-26T15:58:35;32.20;35.20